Date,TemperatureHighF,TemperatureAvgF,TemperatureLowF,DewpointHighF,DewpointAvgF,DewpointLowF,HumidityHigh,HumidityAvg,HumidityLow,PressureMaxIn,PressureMinIn,WindSpeedMaxMPH,WindSpeedAvgMPH,GustSpeedMaxMPH,PrecipitationSumIn
2013-4-1,39.0,28.7,25.0,-99.9,-99.9,-99.9,0,0,100,30.13,29.98,12,-154,15,0.00
2013-4-2,37.0,23.5,26.0,-99.9,-99.9,-99.9,0,0,100,30.16,30.02,12,-9,14,0.00
2013-4-3,41.0,26.0,28.0,-99.9,-99.9,-99.9,0,0,100,30.24,30.15,18,9,24,0.00
2013-4-4,38.0,25.6,31.0,-99.9,-99.9,-99.9,0,0,100,30.21,29.78,19,10,23,0.00
2013-4-5,32.0,8.9,24.0,-99.9,-99.9,-99.9,0,0,100,29.79,29.50,11,7,15,0.00
2013-4-6,28.0,7.9,22.0,-99.9,-99.9,-99.9,0,0,100,29.52,29.45,14,8,19,0.00
2013-4-7,28.0,6.6,19.0,-99.9,-99.9,-99.9,0,0,100,29.80,29.51,28,11,33,0.00
2013-4-8,25.0,5.7,17.0,-99.9,-99.9,-99.9,0,0,100,29.80,29.30,17,9,20,0.00
2013-4-9,22.0,4.8,8.0,-99.9,-99.9,-99.9,0,0,100,29.48,29.10,15,7,18,0.00
2013-4-10,20.0,4.0,12.0,-99.9,-99.9,-99.9,0,0,100,29.95,29.47,13,6,15,0.00
2013-4-11,23.0,4.6,9.0,-99.9,-99.9,-99.9,0,0,100,30.13,29.94,20,10,23,0.00
2013-4-12,28.0,6.3,20.0,-99.9,-99.9,-99.9,0,0,100,30.16,30.09,21,13,26,0.00
2013-4-13,31.0,7.3,24.0,-99.9,-99.9,-99.9,0,0,100,30.42,30.15,16,8,22,0.00
2013-4-14,36.0,13.2,18.0,-99.9,-99.9,-99.9,0,0,100,30.54,30.41,11,-39,12,0.00
2013-4-15,36.0,19.8,19.0,-99.9,-99.9,-99.9,0,0,100,30.44,30.31,17,9,21,0.00
2013-4-16,33.0,12.4,27.0,-99.9,-99.9,-99.9,0,0,100,30.32,30.13,17,10,24,0.00
2013-4-17,33.0,8.8,26.0,-99.9,-99.9,-99.9,0,0,100,30.17,30.12,14,8,21,0.00
2013-4-18,36.0,17.5,27.0,-99.9,-99.9,-99.9,0,0,100,30.20,30.14,13,7,17,0.00
2013-4-19,40.0,28.0,29.0,-99.9,-99.9,-99.9,0,0,100,30.33,30.16,17,3,26,0.00
2013-4-20,41.0,25.4,21.0,-99.9,-99.9,-99.9,0,0,100,30.43,30.33,13,-10,13,0.00
2013-4-21,38.0,26.6,28.0,-99.9,-99.9,-99.9,0,0,100,30.40,30.34,18,10,24,0.00
2013-4-22,44.0,37.7,32.0,-99.9,-99.9,-99.9,0,0,100,30.53,30.39,16,10,21,0.00
2013-4-23,40.0,36.1,33.0,-99.9,-99.9,-99.9,0,0,100,30.48,30.36,17,10,23,0.00
2013-4-24,38.0,35.4,33.0,-99.9,-99.9,-99.9,0,0,100,30.37,29.87,10,-31,12,0.00
2013-4-25,41.0,38.5,35.0,-99.9,-99.9,-99.9,0,0,100,29.88,29.73,31,18,43,0.00
2013-4-26,37.0,31.4,30.0,-99.9,-99.9,-99.9,0,0,100,29.80,29.51,23,7,31,0.00
2013-4-27,41.0,37.2,34.0,-99.9,-99.9,-99.9,0,0,100,29.94,29.53,25,14,32,0.00
2013-4-28,38.0,32.2,31.0,-99.9,-99.9,-99.9,0,0,100,30.17,29.93,18,11,25,0.00
2013-4-29,39.0,29.2,27.0,-99.9,-99.9,-99.9,0,0,100,30.19,30.11,10,-2,12,0.00
2013-4-30,41.0,32.2,30.0,-99.9,-99.9,-99.9,0,0,100,30.11,29.81,13,7,15,0.00